sensor_id;sensor_type;location;lat;lon;timestamp;temperature;humidity
12874;DHT22;6505;51.114;13.128;2023-02-17T00:01:35;14.50;52.20
12874;DHT22;6505;51.114;13.128;2023-02-17T00:04:03;14.50;52.30
12874;DHT22;6505;51.114;13.128;2023-02-17T00:06:31;14.50;52.20
12874;DHT22;6505;51.114;13.128;2023-02-17T00:08:59;14.50;52.30
12874;DHT22;6505;51.114;13.128;2023-02-17T00:11:28;14.50;52.20
12874;DHT22;6505;51.114;13.128;2023-02-17T00:13:56;14.50;52.40
12874;DHT22;6505;51.114;13.128;2023-02-17T00:16:27;14.50;52.30
12874;DHT22;6505;51.114;13.128;2023-02-17T00:18:57;14.40;52.10
12874;DHT22;6505;51.114;13.128;2023-02-17T00:21:28;14.50;52.50
12874;DHT22;6505;51.114;13.128;2023-02-17T00:23:58;14.50;52.50
12874;DHT22;6505;51.114;13.128;2023-02-17T00:26:26;14.50;52.50
12874;DHT22;6505;51.114;13.128;2023-02-17T00:28:54;14.50;52.50
12874;DHT22;6505;51.114;13.128;2023-02-17T00:31:24;14.50;52.70
12874;DHT22;6505;51.114;13.128;2023-02-17T00:33:54;14.50;52.50
12874;DHT22;6505;51.114;13.128;2023-02-17T00:36:23;14.50;52.80
12874;DHT22;6505;51.114;13.128;2023-02-17T00:38:53;14.50;52.80
12874;DHT22;6505;51.114;13.128;2023-02-17T00:41:23;14.50;52.80
12874;DHT22;6505;51.114;13.128;2023-02-17T00:43:56;14.50;52.80
12874;DHT22;6505;51.114;13.128;2023-02-17T00:46:26;14.50;52.90
12874;DHT22;6505;51.114;13.128;2023-02-17T00:48:55;14.50;52.50
12874;DHT22;6505;51.114;13.128;2023-02-17T00:51:24;14.50;52.90
12874;DHT22;6505;51.114;13.128;2023-02-17T00:53:53;14.40;52.90
12874;DHT22;6505;51.114;13.128;2023-02-17T00:56:21;14.50;52.90
12874;DHT22;6505;51.114;13.128;2023-02-17T00:58:49;14.50;52.90
12874;DHT22;6505;51.114;13.128;2023-02-17T01:01:17;14.50;52.90
12874;DHT22;6505;51.114;13.128;2023-02-17T01:03:45;14.50;52.90
12874;DHT22;6505;51.114;13.128;2023-02-17T01:06:20;14.50;52.90
12874;DHT22;6505;51.114;13.128;2023-02-17T01:08:50;14.50;53.10
12874;DHT22;6505;51.114;13.128;2023-02-17T01:11:21;14.50;53.00
12874;DHT22;6505;51.114;13.128;2023-02-17T01:13:50;14.60;53.10
12874;DHT22;6505;51.114;13.128;2023-02-17T01:16:21;14.60;53.10
12874;DHT22;6505;51.114;13.128;2023-02-17T01:18:51;14.60;53.20
12874;DHT22;6505;51.114;13.128;2023-02-17T01:21:23;14.60;53.40
12874;DHT22;6505;51.114;13.128;2023-02-17T01:23:54;14.60;53.80
12874;DHT22;6505;51.114;13.128;2023-02-17T01:26:25;14.60;53.90
12874;DHT22;6505;51.114;13.128;2023-02-17T01:28:54;14.60;54.00
12874;DHT22;6505;51.114;13.128;2023-02-17T01:31:23;14.60;53.90
12874;DHT22;6505;51.114;13.128;2023-02-17T01:33:55;14.60;54.00
12874;DHT22;6505;51.114;13.128;2023-02-17T01:36:25;14.60;54.00
12874;DHT22;6505;51.114;13.128;2023-02-17T01:38:53;14.60;54.00
12874;DHT22;6505;51.114;13.128;2023-02-17T01:41:23;14.60;53.90
12874;DHT22;6505;51.114;13.128;2023-02-17T01:44:08;14.60;54.10
12874;DHT22;6505;51.114;13.128;2023-02-17T01:46:39;14.60;54.10
12874;DHT22;6505;51.114;13.128;2023-02-17T01:49:15;14.60;54.00
12874;DHT22;6505;51.114;13.128;2023-02-17T01:51:52;14.60;54.00
12874;DHT22;6505;51.114;13.128;2023-02-17T01:54:27;14.60;53.90
12874;DHT22;6505;51.114;13.128;2023-02-17T01:57:01;14.60;53.50
12874;DHT22;6505;51.114;13.128;2023-02-17T01:59:30;14.60;53.90
12874;DHT22;6505;51.114;13.128;2023-02-17T02:02:01;14.60;53.90
12874;DHT22;6505;51.114;13.128;2023-02-17T02:04:34;14.60;53.90
12874;DHT22;6505;51.114;13.128;2023-02-17T02:07:12;14.60;53.90
12874;DHT22;6505;51.114;13.128;2023-02-17T02:09:47;14.60;53.90
12874;DHT22;6505;51.114;13.128;2023-02-17T02:12:21;14.60;53.90
12874;DHT22;6505;51.114;13.128;2023-02-17T02:14:51;14.60;53.90
12874;DHT22;6505;51.114;13.128;2023-02-17T02:17:30;14.70;54.00
12874;DHT22;6505;51.114;13.128;2023-02-17T02:23:32;14.60;54.30
12874;DHT22;6505;51.114;13.128;2023-02-17T02:26:37;14.60;54.70
12874;DHT22;6505;51.114;13.128;2023-02-17T02:30:08;14.70;54.80
12874;DHT22;6505;51.114;13.128;2023-02-17T02:33:13;14.60;54.70
12874;DHT22;6505;51.114;13.128;2023-02-17T02:35:53;14.60;54.70
12874;DHT22;6505;51.114;13.128;2023-02-17T02:38:29;14.60;54.70
12874;DHT22;6505;51.114;13.128;2023-02-17T02:41:06;14.60;54.70
12874;DHT22;6505;51.114;13.128;2023-02-17T02:43:37;14.70;54.70
12874;DHT22;6505;51.114;13.128;2023-02-17T02:46:07;14.60;54.70
12874;DHT22;6505;51.114;13.128;2023-02-17T02:48:38;14.70;54.70
12874;DHT22;6505;51.114;13.128;2023-02-17T02:51:18;14.60;54.80
12874;DHT22;6505;51.114;13.128;2023-02-17T02:54:16;14.60;55.00
12874;DHT22;6505;51.114;13.128;2023-02-17T03:00:10;14.60;54.80
12874;DHT22;6505;51.114;13.128;2023-02-17T03:02:50;14.60;54.70
12874;DHT22;6505;51.114;13.128;2023-02-17T03:05:31;14.70;54.80
12874;DHT22;6505;51.114;13.128;2023-02-17T03:08:12;14.70;54.80
12874;DHT22;6505;51.114;13.128;2023-02-17T03:10:44;14.60;54.70
12874;DHT22;6505;51.114;13.128;2023-02-17T03:13:13;14.70;54.80
12874;DHT22;6505;51.114;13.128;2023-02-17T03:15:41;14.70;54.70
12874;DHT22;6505;51.114;13.128;2023-02-17T03:18:10;14.70;54.70
12874;DHT22;6505;51.114;13.128;2023-02-17T03:20:43;14.70;54.60
12874;DHT22;6505;51.114;13.128;2023-02-17T03:23:14;14.70;54.70
12874;DHT22;6505;51.114;13.128;2023-02-17T03:25:42;14.70;54.70
12874;DHT22;6505;51.114;13.128;2023-02-17T03:28:11;14.70;54.70
12874;DHT22;6505;51.114;13.128;2023-02-17T03:30:40;14.70;54.70
12874;DHT22;6505;51.114;13.128;2023-02-17T03:33:08;14.70;54.70
12874;DHT22;6505;51.114;13.128;2023-02-17T03:35:36;14.70;54.60
12874;DHT22;6505;51.114;13.128;2023-02-17T03:38:06;14.80;54.70
12874;DHT22;6505;51.114;13.128;2023-02-17T03:40:33;14.70;54.70
12874;DHT22;6505;51.114;13.128;2023-02-17T03:43:01;14.70;54.60
12874;DHT22;6505;51.114;13.128;2023-02-17T03:45:29;14.70;54.70
12874;DHT22;6505;51.114;13.128;2023-02-17T03:47:57;14.80;54.70
12874;DHT22;6505;51.114;13.128;2023-02-17T03:50:25;14.70;54.60
12874;DHT22;6505;51.114;13.128;2023-02-17T03:52:53;14.70;54.70
12874;DHT22;6505;51.114;13.128;2023-02-17T03:55:22;14.70;54.70
12874;DHT22;6505;51.114;13.128;2023-02-17T03:57:50;14.70;54.70
12874;DHT22;6505;51.114;13.128;2023-02-17T04:00:18;14.70;54.80
12874;DHT22;6505;51.114;13.128;2023-02-17T04:02:49;14.80;54.90
12874;DHT22;6505;51.114;13.128;2023-02-17T04:05:17;14.70;54.70
12874;DHT22;6505;51.114;13.128;2023-02-17T04:07:45;14.80;54.80
12874;DHT22;6505;51.114;13.128;2023-02-17T04:10:13;14.80;54.90
12874;DHT22;6505;51.114;13.128;2023-02-17T04:12:42;14.80;55.00
12874;DHT22;6505;51.114;13.128;2023-02-17T04:15:10;14.80;55.20
12874;DHT22;6505;51.114;13.128;2023-02-17T04:17:39;14.80;55.30
12874;DHT22;6505;51.114;13.128;2023-02-17T04:20:07;14.80;55.20
12874;DHT22;6505;51.114;13.128;2023-02-17T04:22:36;14.80;55.50
12874;DHT22;6505;51.114;13.128;2023-02-17T04:25:04;14.80;55.30
12874;DHT22;6505;51.114;13.128;2023-02-17T04:27:32;14.80;55.50
12874;DHT22;6505;51.114;13.128;2023-02-17T04:30:02;14.80;55.50
12874;DHT22;6505;51.114;13.128;2023-02-17T04:32:30;14.80;55.60
12874;DHT22;6505;51.114;13.128;2023-02-17T04:34:58;14.80;55.40
12874;DHT22;6505;51.114;13.128;2023-02-17T04:37:26;14.80;55.60
12874;DHT22;6505;51.114;13.128;2023-02-17T04:39:54;14.80;55.60
12874;DHT22;6505;51.114;13.128;2023-02-17T04:42:22;14.80;55.60
12874;DHT22;6505;51.114;13.128;2023-02-17T04:44:49;14.80;55.60
12874;DHT22;6505;51.114;13.128;2023-02-17T04:47:19;14.80;55.60
12874;DHT22;6505;51.114;13.128;2023-02-17T04:49:46;14.80;55.70
12874;DHT22;6505;51.114;13.128;2023-02-17T04:52:14;14.90;56.00
12874;DHT22;6505;51.114;13.128;2023-02-17T04:54:42;14.90;55.90
12874;DHT22;6505;51.114;13.128;2023-02-17T04:57:10;14.90;56.00
12874;DHT22;6505;51.114;13.128;2023-02-17T04:59:38;14.80;56.00
12874;DHT22;6505;51.114;13.128;2023-02-17T05:02:06;14.90;56.00
12874;DHT22;6505;51.114;13.128;2023-02-17T05:04:35;14.80;56.00
12874;DHT22;6505;51.114;13.128;2023-02-17T05:07:03;14.90;56.10
12874;DHT22;6505;51.114;13.128;2023-02-17T05:09:31;14.90;56.30
12874;DHT22;6505;51.114;13.128;2023-02-17T05:11:59;14.90;56.40
12874;DHT22;6505;51.114;13.128;2023-02-17T05:14:29;14.90;56.50
12874;DHT22;6505;51.114;13.128;2023-02-17T05:16:57;14.90;56.70
12874;DHT22;6505;51.114;13.128;2023-02-17T05:19:25;14.90;56.80
12874;DHT22;6505;51.114;13.128;2023-02-17T05:21:54;14.90;56.80
12874;DHT22;6505;51.114;13.128;2023-02-17T05:24:22;14.90;56.90
12874;DHT22;6505;51.114;13.128;2023-02-17T05:26:50;14.90;57.00
12874;DHT22;6505;51.114;13.128;2023-02-17T05:29:18;14.90;56.90
12874;DHT22;6505;51.114;13.128;2023-02-17T05:31:46;14.90;57.00
12874;DHT22;6505;51.114;13.128;2023-02-17T05:34:14;14.90;56.90
12874;DHT22;6505;51.114;13.128;2023-02-17T05:36:42;14.90;56.90
12874;DHT22;6505;51.114;13.128;2023-02-17T05:39:11;14.90;56.90
12874;DHT22;6505;51.114;13.128;2023-02-17T05:41:39;14.90;57.10
12874;DHT22;6505;51.114;13.128;2023-02-17T05:44:07;14.90;57.20
12874;DHT22;6505;51.114;13.128;2023-02-17T05:46:35;14.90;57.20
12874;DHT22;6505;51.114;13.128;2023-02-17T05:49:03;15.00;57.30
12874;DHT22;6505;51.114;13.128;2023-02-17T05:51:31;15.00;57.40
12874;DHT22;6505;51.114;13.128;2023-02-17T05:53:59;14.90;57.20
12874;DHT22;6505;51.114;13.128;2023-02-17T05:56:28;14.90;57.20
12874;DHT22;6505;51.114;13.128;2023-02-17T05:58:56;15.00;57.40
12874;DHT22;6505;51.114;13.128;2023-02-17T06:01:26;14.90;57.40
12874;DHT22;6505;51.114;13.128;2023-02-17T06:03:54;14.90;57.70
12874;DHT22;6505;51.114;13.128;2023-02-17T06:06:22;14.90;57.50
12874;DHT22;6505;51.114;13.128;2023-02-17T06:08:50;14.90;57.60
12874;DHT22;6505;51.114;13.128;2023-02-17T06:11:18;14.90;57.70
12874;DHT22;6505;51.114;13.128;2023-02-17T06:13:47;14.90;57.60
12874;DHT22;6505;51.114;13.128;2023-02-17T06:16:15;15.00;57.70
12874;DHT22;6505;51.114;13.128;2023-02-17T06:18:43;14.90;57.50
12874;DHT22;6505;51.114;13.128;2023-02-17T06:21:11;14.90;57.70
12874;DHT22;6505;51.114;13.128;2023-02-17T06:23:39;14.90;57.70
12874;DHT22;6505;51.114;13.128;2023-02-17T06:26:07;14.90;57.70
12874;DHT22;6505;51.114;13.128;2023-02-17T06:28:35;14.90;57.70
12874;DHT22;6505;51.114;13.128;2023-02-17T06:31:04;15.00;57.80
12874;DHT22;6505;51.114;13.128;2023-02-17T06:33:32;15.00;57.90
12874;DHT22;6505;51.114;13.128;2023-02-17T06:36:00;14.90;57.80
12874;DHT22;6505;51.114;13.128;2023-02-17T06:38:28;15.00;58.00
12874;DHT22;6505;51.114;13.128;2023-02-17T06:40:56;15.00;57.20
12874;DHT22;6505;51.114;13.128;2023-02-17T06:43:24;14.90;58.00
12874;DHT22;6505;51.114;13.128;2023-02-17T06:45:52;15.00;58.00
12874;DHT22;6505;51.114;13.128;2023-02-17T06:48:22;15.00;58.10
12874;DHT22;6505;51.114;13.128;2023-02-17T06:50:49;15.00;58.10
12874;DHT22;6505;51.114;13.128;2023-02-17T06:53:17;15.00;58.00
12874;DHT22;6505;51.114;13.128;2023-02-17T06:55:45;15.00;58.00
12874;DHT22;6505;51.114;13.128;2023-02-17T06:58:13;15.00;58.20
12874;DHT22;6505;51.114;13.128;2023-02-17T07:00:41;14.90;58.10
12874;DHT22;6505;51.114;13.128;2023-02-17T07:03:09;15.00;58.00
12874;DHT22;6505;51.114;13.128;2023-02-17T07:05:38;15.00;58.10
12874;DHT22;6505;51.114;13.128;2023-02-17T07:08:06;15.00;58.20
12874;DHT22;6505;51.114;13.128;2023-02-17T07:10:36;15.00;58.20
12874;DHT22;6505;51.114;13.128;2023-02-17T07:13:04;15.00;58.30
12874;DHT22;6505;51.114;13.128;2023-02-17T07:15:32;15.00;58.30
12874;DHT22;6505;51.114;13.128;2023-02-17T07:18:00;15.00;58.20
12874;DHT22;6505;51.114;13.128;2023-02-17T07:20:28;15.00;58.30
12874;DHT22;6505;51.114;13.128;2023-02-17T07:22:59;15.00;58.40
12874;DHT22;6505;51.114;13.128;2023-02-17T07:25:27;15.00;58.80
12874;DHT22;6505;51.114;13.128;2023-02-17T07:27:55;15.00;58.50
12874;DHT22;6505;51.114;13.128;2023-02-17T07:30:23;15.00;58.50
12874;DHT22;6505;51.114;13.128;2023-02-17T07:32:51;15.00;58.50
12874;DHT22;6505;51.114;13.128;2023-02-17T07:35:19;15.00;58.40
12874;DHT22;6505;51.114;13.128;2023-02-17T07:37:47;15.00;58.50
12874;DHT22;6505;51.114;13.128;2023-02-17T07:40:18;15.00;58.60
12874;DHT22;6505;51.114;13.128;2023-02-17T07:42:46;15.00;58.80
12874;DHT22;6505;51.114;13.128;2023-02-17T07:45:14;15.10;58.90
12874;DHT22;6505;51.114;13.128;2023-02-17T07:47:43;15.00;58.70
12874;DHT22;6505;51.114;13.128;2023-02-17T07:50:11;15.10;59.00
12874;DHT22;6505;51.114;13.128;2023-02-17T07:52:39;15.10;59.00
12874;DHT22;6505;51.114;13.128;2023-02-17T07:55:07;15.10;59.00
12874;DHT22;6505;51.114;13.128;2023-02-17T07:57:36;15.10;59.00
12874;DHT22;6505;51.114;13.128;2023-02-17T08:00:05;15.10;59.00
12874;DHT22;6505;51.114;13.128;2023-02-17T08:02:39;15.10;59.20
12874;DHT22;6505;51.114;13.128;2023-02-17T08:05:07;15.10;58.90
12874;DHT22;6505;51.114;13.128;2023-02-17T08:07:35;15.10;59.00
12874;DHT22;6505;51.114;13.128;2023-02-17T08:10:04;15.10;59.00
12874;DHT22;6505;51.114;13.128;2023-02-17T08:12:51;15.10;59.20
12874;DHT22;6505;51.114;13.128;2023-02-17T08:15:34;15.10;59.10
12874;DHT22;6505;51.114;13.128;2023-02-17T08:18:02;15.10;59.10
12874;DHT22;6505;51.114;13.128;2023-02-17T08:20:32;15.10;59.10
12874;DHT22;6505;51.114;13.128;2023-02-17T08:23:01;15.10;59.20
12874;DHT22;6505;51.114;13.128;2023-02-17T08:25:30;15.10;59.20
12874;DHT22;6505;51.114;13.128;2023-02-17T08:28:01;15.20;59.30
12874;DHT22;6505;51.114;13.128;2023-02-17T08:30:30;15.20;58.90
12874;DHT22;6505;51.114;13.128;2023-02-17T08:32:58;15.20;59.10
12874;DHT22;6505;51.114;13.128;2023-02-17T08:35:27;15.20;59.10
12874;DHT22;6505;51.114;13.128;2023-02-17T08:37:55;15.20;59.10
12874;DHT22;6505;51.114;13.128;2023-02-17T08:40:23;15.20;59.20
12874;DHT22;6505;51.114;13.128;2023-02-17T08:42:51;15.20;59.20
12874;DHT22;6505;51.114;13.128;2023-02-17T08:45:20;15.20;59.30
12874;DHT22;6505;51.114;13.128;2023-02-17T08:47:49;15.20;59.40
12874;DHT22;6505;51.114;13.128;2023-02-17T08:50:17;15.20;59.30
12874;DHT22;6505;51.114;13.128;2023-02-17T08:52:46;15.20;60.00
12874;DHT22;6505;51.114;13.128;2023-02-17T08:55:13;15.20;59.40
12874;DHT22;6505;51.114;13.128;2023-02-17T08:57:44;15.20;59.40
12874;DHT22;6505;51.114;13.128;2023-02-17T09:00:12;15.30;59.50
12874;DHT22;6505;51.114;13.128;2023-02-17T09:02:43;15.30;59.60
12874;DHT22;6505;51.114;13.128;2023-02-17T09:05:11;15.30;59.70
12874;DHT22;6505;51.114;13.128;2023-02-17T09:07:40;15.30;59.80
12874;DHT22;6505;51.114;13.128;2023-02-17T09:10:09;15.30;59.90
12874;DHT22;6505;51.114;13.128;2023-02-17T09:12:39;15.30;60.10
12874;DHT22;6505;51.114;13.128;2023-02-17T09:15:07;15.40;60.10
12874;DHT22;6505;51.114;13.128;2023-02-17T09:17:38;15.40;60.20
12874;DHT22;6505;51.114;13.128;2023-02-17T09:20:09;15.30;60.00
12874;DHT22;6505;51.114;13.128;2023-02-17T09:22:50;15.40;60.20
12874;DHT22;6505;51.114;13.128;2023-02-17T09:25:18;15.40;60.10
12874;DHT22;6505;51.114;13.128;2023-02-17T09:27:46;15.40;60.10
12874;DHT22;6505;51.114;13.128;2023-02-17T09:30:14;15.50;60.20
12874;DHT22;6505;51.114;13.128;2023-02-17T09:32:42;15.50;60.20
12874;DHT22;6505;51.114;13.128;2023-02-17T09:35:13;15.50;60.10
12874;DHT22;6505;51.114;13.128;2023-02-17T09:37:43;15.50;60.30
12874;DHT22;6505;51.114;13.128;2023-02-17T09:40:17;15.60;60.20
12874;DHT22;6505;51.114;13.128;2023-02-17T09:42:47;15.50;60.40
12874;DHT22;6505;51.114;13.128;2023-02-17T09:45:20;15.60;60.40
12874;DHT22;6505;51.114;13.128;2023-02-17T09:47:54;15.50;60.30
12874;DHT22;6505;51.114;13.128;2023-02-17T09:50:37;15.60;60.40
12874;DHT22;6505;51.114;13.128;2023-02-17T09:53:16;15.60;60.40
12874;DHT22;6505;51.114;13.128;2023-02-17T09:55:52;15.60;60.40
12874;DHT22;6505;51.114;13.128;2023-02-17T09:58:25;15.60;60.40
12874;DHT22;6505;51.114;13.128;2023-02-17T10:01:00;15.60;60.60
12874;DHT22;6505;51.114;13.128;2023-02-17T10:03:35;15.60;60.50
12874;DHT22;6505;51.114;13.128;2023-02-17T10:06:12;15.70;60.80
12874;DHT22;6505;51.114;13.128;2023-02-17T10:08:47;15.60;60.80
12874;DHT22;6505;51.114;13.128;2023-02-17T10:11:24;15.70;61.20
12874;DHT22;6505;51.114;13.128;2023-02-17T10:13:58;15.60;61.00
12874;DHT22;6505;51.114;13.128;2023-02-17T10:16:35;15.70;61.10
12874;DHT22;6505;51.114;13.128;2023-02-17T10:19:11;15.70;61.00
12874;DHT22;6505;51.114;13.128;2023-02-17T10:21:47;15.70;61.00
12874;DHT22;6505;51.114;13.128;2023-02-17T10:24:23;15.70;61.00
12874;DHT22;6505;51.114;13.128;2023-02-17T10:27:10;15.70;61.00
12874;DHT22;6505;51.114;13.128;2023-02-17T10:29:56;15.80;61.50
12874;DHT22;6505;51.114;13.128;2023-02-17T10:32:47;15.80;61.20
12874;DHT22;6505;51.114;13.128;2023-02-17T10:35:37;15.80;61.30
12874;DHT22;6505;51.114;13.128;2023-02-17T10:38:16;15.80;61.30
12874;DHT22;6505;51.114;13.128;2023-02-17T10:40:53;15.90;61.30
12874;DHT22;6505;51.114;13.128;2023-02-17T10:43:25;15.90;61.30
12874;DHT22;6505;51.114;13.128;2023-02-17T10:45:56;15.90;61.30
12874;DHT22;6505;51.114;13.128;2023-02-17T10:48:32;15.90;61.20
12874;DHT22;6505;51.114;13.128;2023-02-17T10:51:05;15.90;61.10
12874;DHT22;6505;51.114;13.128;2023-02-17T10:53:37;15.90;60.70
12874;DHT22;6505;51.114;13.128;2023-02-17T10:56:09;15.90;60.70
12874;DHT22;6505;51.114;13.128;2023-02-17T10:58:45;15.90;60.70
12874;DHT22;6505;51.114;13.128;2023-02-17T11:01:20;15.90;60.80
12874;DHT22;6505;51.114;13.128;2023-02-17T11:03:59;15.90;60.50
12874;DHT22;6505;51.114;13.128;2023-02-17T11:06:29;15.90;60.70
12874;DHT22;6505;51.114;13.128;2023-02-17T11:09:02;16.00;60.80
12874;DHT22;6505;51.114;13.128;2023-02-17T11:11:35;16.00;60.80
12874;DHT22;6505;51.114;13.128;2023-02-17T11:14:11;16.00;60.90
12874;DHT22;6505;51.114;13.128;2023-02-17T11:16:46;16.00;61.60
12874;DHT22;6505;51.114;13.128;2023-02-17T11:19:21;16.00;61.40
12874;DHT22;6505;51.114;13.128;2023-02-17T11:21:53;16.00;61.90
12874;DHT22;6505;51.114;13.128;2023-02-17T11:24:24;16.00;62.40
12874;DHT22;6505;51.114;13.128;2023-02-17T11:26:55;16.00;62.30
12874;DHT22;6505;51.114;13.128;2023-02-17T11:29:25;16.00;62.60
12874;DHT22;6505;51.114;13.128;2023-02-17T11:31:55;16.00;62.70
12874;DHT22;6505;51.114;13.128;2023-02-17T11:34:26;16.00;62.70
12874;DHT22;6505;51.114;13.128;2023-02-17T11:37:01;16.00;62.80
12874;DHT22;6505;51.114;13.128;2023-02-17T11:39:38;16.00;62.80
12874;DHT22;6505;51.114;13.128;2023-02-17T11:42:14;16.00;63.60
12874;DHT22;6505;51.114;13.128;2023-02-17T11:44:43;16.00;62.70
12874;DHT22;6505;51.114;13.128;2023-02-17T11:47:17;16.10;62.80
12874;DHT22;6505;51.114;13.128;2023-02-17T11:50:22;16.10;63.10
12874;DHT22;6505;51.114;13.128;2023-02-17T11:53:19;16.10;63.20
12874;DHT22;6505;51.114;13.128;2023-02-17T11:56:09;16.10;63.00
12874;DHT22;6505;51.114;13.128;2023-02-17T12:02:01;16.10;63.00
12874;DHT22;6505;51.114;13.128;2023-02-17T12:04:51;16.10;63.00
12874;DHT22;6505;51.114;13.128;2023-02-17T12:07:38;16.20;63.00
12874;DHT22;6505;51.114;13.128;2023-02-17T12:10:21;16.20;63.00
12874;DHT22;6505;51.114;13.128;2023-02-17T12:13:12;16.20;63.00
12874;DHT22;6505;51.114;13.128;2023-02-17T12:15:53;16.20;63.00
12874;DHT22;6505;51.114;13.128;2023-02-17T12:18:47;16.20;62.80
12874;DHT22;6505;51.114;13.128;2023-02-17T12:21:32;16.20;62.90
12874;DHT22;6505;51.114;13.128;2023-02-17T12:24:40;16.30;63.00
12874;DHT22;6505;51.114;13.128;2023-02-17T12:27:26;16.20;63.10
12874;DHT22;6505;51.114;13.128;2023-02-17T12:30:15;16.20;63.20
12874;DHT22;6505;51.114;13.128;2023-02-17T12:33:26;16.30;63.00
12874;DHT22;6505;51.114;13.128;2023-02-17T12:36:06;16.30;63.30
12874;DHT22;6505;51.114;13.128;2023-02-17T12:38:41;16.30;63.30
12874;DHT22;6505;51.114;13.128;2023-02-17T12:41:15;16.30;63.10
12874;DHT22;6505;51.114;13.128;2023-02-17T12:43:48;16.30;63.30
12874;DHT22;6505;51.114;13.128;2023-02-17T12:46:24;16.30;63.40
12874;DHT22;6505;51.114;13.128;2023-02-17T12:48:58;16.30;63.20
12874;DHT22;6505;51.114;13.128;2023-02-17T12:51:34;16.40;63.40
12874;DHT22;6505;51.114;13.128;2023-02-17T12:54:11;16.40;63.40
12874;DHT22;6505;51.114;13.128;2023-02-17T12:57:12;16.40;63.40
12874;DHT22;6505;51.114;13.128;2023-02-17T12:59:43;16.40;63.50
12874;DHT22;6505;51.114;13.128;2023-02-17T13:02:15;16.50;63.30
12874;DHT22;6505;51.114;13.128;2023-02-17T13:04:48;16.50;63.30
12874;DHT22;6505;51.114;13.128;2023-02-17T13:07:28;16.50;63.30
12874;DHT22;6505;51.114;13.128;2023-02-17T13:10:15;16.50;63.30
12874;DHT22;6505;51.114;13.128;2023-02-17T13:12:55;16.50;63.30
12874;DHT22;6505;51.114;13.128;2023-02-17T13:15:30;16.50;63.30
12874;DHT22;6505;51.114;13.128;2023-02-17T13:18:03;16.50;63.20
12874;DHT22;6505;51.114;13.128;2023-02-17T13:20:54;16.50;63.10
12874;DHT22;6505;51.114;13.128;2023-02-17T13:23:43;16.50;63.30
12874;DHT22;6505;51.114;13.128;2023-02-17T13:26:33;16.60;63.30
12874;DHT22;6505;51.114;13.128;2023-02-17T13:29:17;16.60;63.40
12874;DHT22;6505;51.114;13.128;2023-02-17T13:31:50;16.60;63.30
12874;DHT22;6505;51.114;13.128;2023-02-17T13:34:29;16.70;63.20
12874;DHT22;6505;51.114;13.128;2023-02-17T13:37:01;16.70;63.30
12874;DHT22;6505;51.114;13.128;2023-02-17T13:39:42;16.70;63.10
12874;DHT22;6505;51.114;13.128;2023-02-17T13:42:32;16.70;63.10
12874;DHT22;6505;51.114;13.128;2023-02-17T13:45:16;16.70;62.90
12874;DHT22;6505;51.114;13.128;2023-02-17T13:47:48;16.70;63.30
12874;DHT22;6505;51.114;13.128;2023-02-17T13:50:31;16.70;63.10
12874;DHT22;6505;51.114;13.128;2023-02-17T13:53:05;16.70;63.10
12874;DHT22;6505;51.114;13.128;2023-02-17T13:55:47;16.70;63.10
12874;DHT22;6505;51.114;13.128;2023-02-17T13:58:21;16.70;63.00
12874;DHT22;6505;51.114;13.128;2023-02-17T14:00:50;16.80;63.30
12874;DHT22;6505;51.114;13.128;2023-02-17T14:03:21;16.70;63.10
12874;DHT22;6505;51.114;13.128;2023-02-17T14:05:54;16.80;63.20
12874;DHT22;6505;51.114;13.128;2023-02-17T14:08:28;16.80;63.30
12874;DHT22;6505;51.114;13.128;2023-02-17T14:11:06;16.80;63.70
12874;DHT22;6505;51.114;13.128;2023-02-17T14:13:38;16.80;63.30
12874;DHT22;6505;51.114;13.128;2023-02-17T14:16:25;16.80;63.20
12874;DHT22;6505;51.114;13.128;2023-02-17T14:19:04;16.80;63.30
12874;DHT22;6505;51.114;13.128;2023-02-17T14:21:36;16.80;63.30
12874;DHT22;6505;51.114;13.128;2023-02-17T14:24:06;16.80;63.20
12874;DHT22;6505;51.114;13.128;2023-02-17T14:26:41;16.90;63.20
12874;DHT22;6505;51.114;13.128;2023-02-17T14:29:11;16.90;63.30
12874;DHT22;6505;51.114;13.128;2023-02-17T14:31:42;16.90;63.10
12874;DHT22;6505;51.114;13.128;2023-02-17T14:34:23;16.80;63.00
12874;DHT22;6505;51.114;13.128;2023-02-17T14:36:54;16.90;63.10
12874;DHT22;6505;51.114;13.128;2023-02-17T14:39:34;16.90;63.10
12874;DHT22;6505;51.114;13.128;2023-02-17T14:42:02;16.90;63.00
12874;DHT22;6505;51.114;13.128;2023-02-17T14:44:30;16.90;63.10
12874;DHT22;6505;51.114;13.128;2023-02-17T14:46:59;16.90;62.60
12874;DHT22;6505;51.114;13.128;2023-02-17T14:49:27;16.90;62.90
12874;DHT22;6505;51.114;13.128;2023-02-17T14:51:56;16.90;62.90
12874;DHT22;6505;51.114;13.128;2023-02-17T14:54:24;16.90;62.90
12874;DHT22;6505;51.114;13.128;2023-02-17T14:57:01;17.00;63.00
12874;DHT22;6505;51.114;13.128;2023-02-17T14:59:32;16.90;63.10
12874;DHT22;6505;51.114;13.128;2023-02-17T15:02:00;17.00;62.60
12874;DHT22;6505;51.114;13.128;2023-02-17T15:04:28;17.00;63.00
12874;DHT22;6505;51.114;13.128;2023-02-17T15:06:57;17.00;63.00
12874;DHT22;6505;51.114;13.128;2023-02-17T15:09:28;17.00;63.10
12874;DHT22;6505;51.114;13.128;2023-02-17T15:11:57;17.00;63.20
12874;DHT22;6505;51.114;13.128;2023-02-17T15:14:25;17.00;63.00
12874;DHT22;6505;51.114;13.128;2023-02-17T15:16:53;17.00;62.90
12874;DHT22;6505;51.114;13.128;2023-02-17T15:19:21;17.00;63.00
12874;DHT22;6505;51.114;13.128;2023-02-17T15:21:50;17.00;63.10
12874;DHT22;6505;51.114;13.128;2023-02-17T15:24:22;17.00;63.10
12874;DHT22;6505;51.114;13.128;2023-02-17T15:26:56;17.00;63.30
12874;DHT22;6505;51.114;13.128;2023-02-17T15:29:24;17.00;63.10
12874;DHT22;6505;51.114;13.128;2023-02-17T15:31:55;17.00;63.10
12874;DHT22;6505;51.114;13.128;2023-02-17T15:34:26;17.00;63.20
12874;DHT22;6505;51.114;13.128;2023-02-17T15:36:57;17.00;63.30
12874;DHT22;6505;51.114;13.128;2023-02-17T15:39:27;17.00;63.30
12874;DHT22;6505;51.114;13.128;2023-02-17T15:41:59;17.00;63.20
12874;DHT22;6505;51.114;13.128;2023-02-17T15:44:38;17.00;63.30
12874;DHT22;6505;51.114;13.128;2023-02-17T15:47:13;17.00;63.30
12874;DHT22;6505;51.114;13.128;2023-02-17T15:49:45;17.00;63.20
12874;DHT22;6505;51.114;13.128;2023-02-17T15:52:13;17.00;63.20
12874;DHT22;6505;51.114;13.128;2023-02-17T15:54:43;17.00;63.20
12874;DHT22;6505;51.114;13.128;2023-02-17T15:57:19;17.00;63.10
12874;DHT22;6505;51.114;13.128;2023-02-17T15:59:48;17.00;63.10
12874;DHT22;6505;51.114;13.128;2023-02-17T16:02:18;17.00;63.00
12874;DHT22;6505;51.114;13.128;2023-02-17T16:04:48;17.00;63.20
12874;DHT22;6505;51.114;13.128;2023-02-17T16:07:16;17.00;63.10
12874;DHT22;6505;51.114;13.128;2023-02-17T16:09:45;17.00;63.30
12874;DHT22;6505;51.114;13.128;2023-02-17T16:12:15;17.00;63.30
12874;DHT22;6505;51.114;13.128;2023-02-17T16:14:51;17.00;63.40